Etusivu
METAR-TAF:

METAR-TAF

Lentoasemat :

Edremit, Turkki

Leveyspiiri: 39-33-16N, Pituuspiiri: 27-00-49E, korkeus merenpinnasta: 15 m

Tämänhetkinen sää

Tämä raportti tehtiin 37 minuuttia sitten, kello 10.50 UTC
Tuuli 14 kn idästä/koillisesta, vaihdellen pohjoisen/koillisen ja idän/kaakon välillä
Lämpötila 37°C
Kosteus 33%
Ilmanpaine 1007 hPa
Näkyvyys 10 km tai enemmän
Hajanaisia pilviä 3500 ft:n korkeudessa

METAR: LTFD 231050Z 07014KT 030V110 9999 SCT035 37/18 Q1007

Aika: 14:27 (11:27 UTC)

Sääennuste

Tämä raportti tehtiin 3 tuntia ja 47 minuuttia sitten, kello 07.40 UTC
Ennuste voimassa 23. päivästä klo 09 UTC - 23. päivään klo 18 UTC
Tuuli 18 kn idästä/koillisesta
Näkyvyys 10 km tai enemmän
Muutamia pilviä 3500 ft:n korkeudessa

TAF: LTFD 230740Z 2309/2318 07018KT 9999 FEW035

Säähavainnot ja -ennusteet yli 4000 lentoasemalta (METAR- ja TAF-raportit).

Käytössä olevat sääasemat on merkitty karttaan keltaisilla ja punaisilla pisteillä.

Aseta hiiri pisteen päälle nähdäksesi sääaseman nimen.

Klikkaa sitten nähdäksesi säähavainnot ja -ennusteet.

Kartan vaihtaminen: klikkaa mustalla rastilla varustettuja vihreitä pisteitä, niin voit zoomata sisään; viivalla varustettua vihreää pistettä, niin voit zoomata ulos tai vihreitä nuolia, niin pääset viereisille kartoille.


METAR-TAF: